sensor_id;sensor_type;location;lat;lon;timestamp;temperature;humidity
25732;DHT22;13585;50.864;4.406;2023-01-28T00:01:12;15.20;58.90
25732;DHT22;13585;50.864;4.406;2023-01-28T00:03:38;15.20;59.00
25732;DHT22;13585;50.864;4.406;2023-01-28T00:06:09;15.10;58.90
25732;DHT22;13585;50.864;4.406;2023-01-28T00:08:36;15.10;58.90
25732;DHT22;13585;50.864;4.406;2023-01-28T00:11:03;15.20;58.90
25732;DHT22;13585;50.864;4.406;2023-01-28T00:13:30;15.10;58.90
25732;DHT22;13585;50.864;4.406;2023-01-28T00:15:57;15.10;58.80
25732;DHT22;13585;50.864;4.406;2023-01-28T00:18:24;15.20;58.90
25732;DHT22;13585;50.864;4.406;2023-01-28T00:23:30;15.10;58.90
25732;DHT22;13585;50.864;4.406;2023-01-28T00:26:00;15.10;58.80
25732;DHT22;13585;50.864;4.406;2023-01-28T00:28:26;15.10;58.80
25732;DHT22;13585;50.864;4.406;2023-01-28T00:30:52;15.10;58.80
25732;DHT22;13585;50.864;4.406;2023-01-28T00:33:18;15.10;58.80
25732;DHT22;13585;50.864;4.406;2023-01-28T00:35:44;15.10;58.80
25732;DHT22;13585;50.864;4.406;2023-01-28T00:38:10;15.10;58.70
25732;DHT22;13585;50.864;4.406;2023-01-28T00:40:35;15.10;58.70
25732;DHT22;13585;50.864;4.406;2023-01-28T00:43:01;15.10;58.70
25732;DHT22;13585;50.864;4.406;2023-01-28T00:45:27;15.10;58.70
25732;DHT22;13585;50.864;4.406;2023-01-28T00:47:52;15.10;58.70
25732;DHT22;13585;50.864;4.406;2023-01-28T00:50:18;15.10;58.60
25732;DHT22;13585;50.864;4.406;2023-01-28T00:52:46;15.10;58.60
25732;DHT22;13585;50.864;4.406;2023-01-28T00:55:12;15.10;58.60
25732;DHT22;13585;50.864;4.406;2023-01-28T00:57:38;15.10;58.60
25732;DHT22;13585;50.864;4.406;2023-01-28T01:00:04;15.10;58.60
25732;DHT22;13585;50.864;4.406;2023-01-28T01:02:31;15.10;58.60
25732;DHT22;13585;50.864;4.406;2023-01-28T01:04:56;15.10;58.60
25732;DHT22;13585;50.864;4.406;2023-01-28T01:07:27;15.10;58.60
25732;DHT22;13585;50.864;4.406;2023-01-28T01:10:02;15.10;58.50
25732;DHT22;13585;50.864;4.406;2023-01-28T01:12:28;15.10;58.50
25732;DHT22;13585;50.864;4.406;2023-01-28T01:14:53;15.10;58.50
25732;DHT22;13585;50.864;4.406;2023-01-28T01:17:19;15.10;58.50
25732;DHT22;13585;50.864;4.406;2023-01-28T01:19:46;15.10;58.50
25732;DHT22;13585;50.864;4.406;2023-01-28T01:22:11;15.10;58.50
25732;DHT22;13585;50.864;4.406;2023-01-28T01:24:37;15.10;58.40
25732;DHT22;13585;50.864;4.406;2023-01-28T01:27:02;15.00;58.40
25732;DHT22;13585;50.864;4.406;2023-01-28T01:29:30;15.10;58.40
25732;DHT22;13585;50.864;4.406;2023-01-28T01:31:58;15.10;58.40
25732;DHT22;13585;50.864;4.406;2023-01-28T01:34:24;15.10;58.40
25732;DHT22;13585;50.864;4.406;2023-01-28T01:36:50;15.10;58.40
25732;DHT22;13585;50.864;4.406;2023-01-28T01:39:15;15.10;58.40
25732;DHT22;13585;50.864;4.406;2023-01-28T01:41:41;15.10;58.40
25732;DHT22;13585;50.864;4.406;2023-01-28T01:44:51;15.10;58.40
25732;DHT22;13585;50.864;4.406;2023-01-28T01:47:22;15.00;58.40
25732;DHT22;13585;50.864;4.406;2023-01-28T01:49:48;15.10;58.30
25732;DHT22;13585;50.864;4.406;2023-01-28T01:52:18;15.00;58.20
25732;DHT22;13585;50.864;4.406;2023-01-28T01:54:49;15.00;58.30
25732;DHT22;13585;50.864;4.406;2023-01-28T01:57:22;15.10;58.30
25732;DHT22;13585;50.864;4.406;2023-01-28T01:59:48;15.00;58.20
25732;DHT22;13585;50.864;4.406;2023-01-28T02:02:14;15.00;58.20
25732;DHT22;13585;50.864;4.406;2023-01-28T02:04:43;15.10;58.10
25732;DHT22;13585;50.864;4.406;2023-01-28T02:07:12;15.00;58.20
25732;DHT22;13585;50.864;4.406;2023-01-28T02:09:38;15.00;58.20
25732;DHT22;13585;50.864;4.406;2023-01-28T02:12:15;15.00;58.80
25732;DHT22;13585;50.864;4.406;2023-01-28T02:15:15;15.00;58.20
25732;DHT22;13585;50.864;4.406;2023-01-28T02:17:41;15.00;58.30
25732;DHT22;13585;50.864;4.406;2023-01-28T02:20:12;15.00;58.10
25732;DHT22;13585;50.864;4.406;2023-01-28T02:28:33;15.00;58.20
25732;DHT22;13585;50.864;4.406;2023-01-28T02:31:09;15.00;58.10
25732;DHT22;13585;50.864;4.406;2023-01-28T02:33:55;15.00;58.10
25732;DHT22;13585;50.864;4.406;2023-01-28T02:36:28;15.00;58.10
25732;DHT22;13585;50.864;4.406;2023-01-28T02:38:57;15.00;58.10
25732;DHT22;13585;50.864;4.406;2023-01-28T02:41:33;15.00;58.10
25732;DHT22;13585;50.864;4.406;2023-01-28T02:44:02;15.00;58.10
25732;DHT22;13585;50.864;4.406;2023-01-28T02:49:28;15.00;58.10
25732;DHT22;13585;50.864;4.406;2023-01-28T02:54:44;15.00;58.00
25732;DHT22;13585;50.864;4.406;2023-01-28T02:59:44;15.00;58.00
25732;DHT22;13585;50.864;4.406;2023-01-28T03:05:13;15.00;58.00
25732;DHT22;13585;50.864;4.406;2023-01-28T03:07:40;14.90;57.90
25732;DHT22;13585;50.864;4.406;2023-01-28T03:10:08;15.00;57.90
25732;DHT22;13585;50.864;4.406;2023-01-28T03:12:39;15.00;57.90
25732;DHT22;13585;50.864;4.406;2023-01-28T03:15:28;15.00;58.50
25732;DHT22;13585;50.864;4.406;2023-01-28T03:18:45;15.00;57.90
25732;DHT22;13585;50.864;4.406;2023-01-28T03:21:41;15.00;57.90
25732;DHT22;13585;50.864;4.406;2023-01-28T03:24:36;14.90;57.80
25732;DHT22;13585;50.864;4.406;2023-01-28T03:30:36;14.90;57.80
25732;DHT22;13585;50.864;4.406;2023-01-28T03:33:22;14.90;58.40
25732;DHT22;13585;50.864;4.406;2023-01-28T03:36:07;15.00;57.80
25732;DHT22;13585;50.864;4.406;2023-01-28T03:38:52;14.90;57.70
25732;DHT22;13585;50.864;4.406;2023-01-28T03:41:22;14.90;57.80
25732;DHT22;13585;50.864;4.406;2023-01-28T03:43:49;15.00;57.80
25732;DHT22;13585;50.864;4.406;2023-01-28T03:46:15;14.90;57.80
25732;DHT22;13585;50.864;4.406;2023-01-28T03:48:41;14.90;57.80
25732;DHT22;13585;50.864;4.406;2023-01-28T03:51:07;14.90;57.80
25732;DHT22;13585;50.864;4.406;2023-01-28T03:53:32;14.90;57.80
25732;DHT22;13585;50.864;4.406;2023-01-28T03:55:58;14.90;57.80
25732;DHT22;13585;50.864;4.406;2023-01-28T03:58:24;14.90;57.80
25732;DHT22;13585;50.864;4.406;2023-01-28T04:01:11;14.90;57.70
25732;DHT22;13585;50.864;4.406;2023-01-28T04:03:37;14.90;57.70
25732;DHT22;13585;50.864;4.406;2023-01-28T04:06:05;14.90;57.70
25732;DHT22;13585;50.864;4.406;2023-01-28T04:08:31;14.90;57.70
25732;DHT22;13585;50.864;4.406;2023-01-28T04:10:57;14.90;57.70
25732;DHT22;13585;50.864;4.406;2023-01-28T04:13:23;14.90;57.60
25732;DHT22;13585;50.864;4.406;2023-01-28T04:15:48;14.90;57.60
25732;DHT22;13585;50.864;4.406;2023-01-28T04:18:14;14.90;57.60
25732;DHT22;13585;50.864;4.406;2023-01-28T04:20:40;14.90;57.60
25732;DHT22;13585;50.864;4.406;2023-01-28T04:23:06;14.90;57.60
25732;DHT22;13585;50.864;4.406;2023-01-28T04:25:34;14.90;57.60
25732;DHT22;13585;50.864;4.406;2023-01-28T04:28:00;14.90;57.60
25732;DHT22;13585;50.864;4.406;2023-01-28T04:30:25;14.90;57.60
25732;DHT22;13585;50.864;4.406;2023-01-28T04:32:51;14.90;57.50
25732;DHT22;13585;50.864;4.406;2023-01-28T04:35:18;14.90;57.50
25732;DHT22;13585;50.864;4.406;2023-01-28T04:37:44;14.90;57.50
25732;DHT22;13585;50.864;4.406;2023-01-28T04:40:11;14.90;57.50
25732;DHT22;13585;50.864;4.406;2023-01-28T04:42:36;14.90;57.50
25732;DHT22;13585;50.864;4.406;2023-01-28T04:45:03;14.90;58.00
25732;DHT22;13585;50.864;4.406;2023-01-28T04:47:28;14.90;57.50
25732;DHT22;13585;50.864;4.406;2023-01-28T04:49:54;14.90;57.40
25732;DHT22;13585;50.864;4.406;2023-01-28T04:52:19;14.90;57.40
25732;DHT22;13585;50.864;4.406;2023-01-28T04:54:45;14.90;57.40
25732;DHT22;13585;50.864;4.406;2023-01-28T04:57:11;14.90;57.40
25732;DHT22;13585;50.864;4.406;2023-01-28T04:59:36;14.90;57.40
25732;DHT22;13585;50.864;4.406;2023-01-28T05:02:02;14.90;57.30
25732;DHT22;13585;50.864;4.406;2023-01-28T05:04:28;14.90;57.30
25732;DHT22;13585;50.864;4.406;2023-01-28T05:06:54;14.90;57.30
25732;DHT22;13585;50.864;4.406;2023-01-28T05:09:19;14.90;57.30
25732;DHT22;13585;50.864;4.406;2023-01-28T05:11:45;14.90;57.30
25732;DHT22;13585;50.864;4.406;2023-01-28T05:14:10;14.90;57.20
25732;DHT22;13585;50.864;4.406;2023-01-28T05:16:36;14.90;57.30
25732;DHT22;13585;50.864;4.406;2023-01-28T05:19:02;14.90;57.20
25732;DHT22;13585;50.864;4.406;2023-01-28T05:21:28;14.90;57.30
25732;DHT22;13585;50.864;4.406;2023-01-28T05:23:54;14.90;57.20
25732;DHT22;13585;50.864;4.406;2023-01-28T05:26:19;14.90;57.20
25732;DHT22;13585;50.864;4.406;2023-01-28T05:28:45;14.90;57.20
25732;DHT22;13585;50.864;4.406;2023-01-28T05:31:11;14.90;57.20
25732;DHT22;13585;50.864;4.406;2023-01-28T05:33:37;14.90;57.20
25732;DHT22;13585;50.864;4.406;2023-01-28T05:36:03;14.90;57.20
25732;DHT22;13585;50.864;4.406;2023-01-28T05:38:29;14.90;57.20
25732;DHT22;13585;50.864;4.406;2023-01-28T05:40:55;14.90;57.20
25732;DHT22;13585;50.864;4.406;2023-01-28T05:43:20;14.90;57.10
25732;DHT22;13585;50.864;4.406;2023-01-28T05:45:46;14.90;57.10
25732;DHT22;13585;50.864;4.406;2023-01-28T05:48:13;14.90;57.10
25732;DHT22;13585;50.864;4.406;2023-01-28T05:50:39;14.90;57.10
25732;DHT22;13585;50.864;4.406;2023-01-28T05:53:08;14.80;57.10
25732;DHT22;13585;50.864;4.406;2023-01-28T05:55:34;14.90;57.10
25732;DHT22;13585;50.864;4.406;2023-01-28T05:57:59;14.90;57.10
25732;DHT22;13585;50.864;4.406;2023-01-28T06:00:25;14.90;57.10
25732;DHT22;13585;50.864;4.406;2023-01-28T06:02:51;14.90;57.00
25732;DHT22;13585;50.864;4.406;2023-01-28T06:05:17;14.90;57.00
25732;DHT22;13585;50.864;4.406;2023-01-28T06:07:46;14.80;56.90
25732;DHT22;13585;50.864;4.406;2023-01-28T06:10:13;14.90;56.90
25732;DHT22;13585;50.864;4.406;2023-01-28T06:12:39;14.90;56.90
25732;DHT22;13585;50.864;4.406;2023-01-28T06:15:05;14.90;56.80
25732;DHT22;13585;50.864;4.406;2023-01-28T06:17:31;14.90;56.80
25732;DHT22;13585;50.864;4.406;2023-01-28T06:19:57;14.90;56.80
25732;DHT22;13585;50.864;4.406;2023-01-28T06:22:22;14.90;56.70
25732;DHT22;13585;50.864;4.406;2023-01-28T06:24:48;14.90;56.80
25732;DHT22;13585;50.864;4.406;2023-01-28T06:27:13;14.90;56.70
25732;DHT22;13585;50.864;4.406;2023-01-28T06:29:39;14.90;56.70
25732;DHT22;13585;50.864;4.406;2023-01-28T06:32:05;14.90;56.70
25732;DHT22;13585;50.864;4.406;2023-01-28T06:34:31;14.90;56.70
25732;DHT22;13585;50.864;4.406;2023-01-28T06:36:56;15.00;56.70
25732;DHT22;13585;50.864;4.406;2023-01-28T06:39:22;14.90;56.70
25732;DHT22;13585;50.864;4.406;2023-01-28T06:41:49;14.90;56.70
25732;DHT22;13585;50.864;4.406;2023-01-28T06:44:15;14.90;56.70
25732;DHT22;13585;50.864;4.406;2023-01-28T06:46:40;14.90;56.70
25732;DHT22;13585;50.864;4.406;2023-01-28T06:49:06;15.00;56.70
25732;DHT22;13585;50.864;4.406;2023-01-28T06:51:32;15.00;56.70
25732;DHT22;13585;50.864;4.406;2023-01-28T06:53:57;15.00;56.70
25732;DHT22;13585;50.864;4.406;2023-01-28T06:56:23;15.00;56.80
25732;DHT22;13585;50.864;4.406;2023-01-28T06:58:49;15.00;56.80
25732;DHT22;13585;50.864;4.406;2023-01-28T07:01:15;15.00;56.80
25732;DHT22;13585;50.864;4.406;2023-01-28T07:03:41;15.00;56.80
25732;DHT22;13585;50.864;4.406;2023-01-28T07:06:06;15.00;56.80
25732;DHT22;13585;50.864;4.406;2023-01-28T07:08:32;15.00;56.80
25732;DHT22;13585;50.864;4.406;2023-01-28T07:10:58;15.10;56.90
25732;DHT22;13585;50.864;4.406;2023-01-28T07:13:25;15.10;56.90
25732;DHT22;13585;50.864;4.406;2023-01-28T07:15:51;15.10;56.90
25732;DHT22;13585;50.864;4.406;2023-01-28T07:18:16;15.10;56.90
25732;DHT22;13585;50.864;4.406;2023-01-28T07:20:42;15.10;56.90
25732;DHT22;13585;50.864;4.406;2023-01-28T07:23:08;15.10;56.90
25732;DHT22;13585;50.864;4.406;2023-01-28T07:25:33;15.10;57.00
25732;DHT22;13585;50.864;4.406;2023-01-28T07:27:59;15.10;57.00
25732;DHT22;13585;50.864;4.406;2023-01-28T07:30:24;15.10;56.90
25732;DHT22;13585;50.864;4.406;2023-01-28T07:32:54;15.10;56.90
25732;DHT22;13585;50.864;4.406;2023-01-28T07:35:21;15.10;56.90
25732;DHT22;13585;50.864;4.406;2023-01-28T07:37:51;15.20;57.00
25732;DHT22;13585;50.864;4.406;2023-01-28T07:40:17;15.20;57.00
25732;DHT22;13585;50.864;4.406;2023-01-28T07:42:43;15.20;57.00
25732;DHT22;13585;50.864;4.406;2023-01-28T07:45:09;15.20;57.00
25732;DHT22;13585;50.864;4.406;2023-01-28T07:47:34;15.20;57.00
25732;DHT22;13585;50.864;4.406;2023-01-28T07:50:00;15.20;57.00
25732;DHT22;13585;50.864;4.406;2023-01-28T07:52:26;15.10;57.00
25732;DHT22;13585;50.864;4.406;2023-01-28T07:54:52;15.20;57.00
25732;DHT22;13585;50.864;4.406;2023-01-28T07:57:17;15.20;57.00
25732;DHT22;13585;50.864;4.406;2023-01-28T07:59:50;15.20;57.00
25732;DHT22;13585;50.864;4.406;2023-01-28T08:02:17;15.20;57.00
25732;DHT22;13585;50.864;4.406;2023-01-28T08:04:43;15.20;57.00
25732;DHT22;13585;50.864;4.406;2023-01-28T08:07:08;15.20;57.00
25732;DHT22;13585;50.864;4.406;2023-01-28T08:09:34;15.20;57.00
25732;DHT22;13585;50.864;4.406;2023-01-28T08:12:01;15.30;57.00
25732;DHT22;13585;50.864;4.406;2023-01-28T08:14:27;15.20;57.00
25732;DHT22;13585;50.864;4.406;2023-01-28T08:16:53;15.30;57.00
25732;DHT22;13585;50.864;4.406;2023-01-28T08:19:18;15.30;57.00
25732;DHT22;13585;50.864;4.406;2023-01-28T08:21:48;15.30;57.00
25732;DHT22;13585;50.864;4.406;2023-01-28T08:24:15;15.30;57.00
25732;DHT22;13585;50.864;4.406;2023-01-28T08:26:40;15.30;57.00
25732;DHT22;13585;50.864;4.406;2023-01-28T08:29:06;15.30;57.00
25732;DHT22;13585;50.864;4.406;2023-01-28T08:31:31;15.30;57.00
25732;DHT22;13585;50.864;4.406;2023-01-28T08:33:57;15.30;57.00
25732;DHT22;13585;50.864;4.406;2023-01-28T08:36:23;15.30;57.10
25732;DHT22;13585;50.864;4.406;2023-01-28T08:38:52;15.30;57.10
25732;DHT22;13585;50.864;4.406;2023-01-28T08:41:20;15.30;57.10
25732;DHT22;13585;50.864;4.406;2023-01-28T08:43:46;15.30;57.10
25732;DHT22;13585;50.864;4.406;2023-01-28T08:46:12;15.30;57.10
25732;DHT22;13585;50.864;4.406;2023-01-28T08:48:37;15.30;57.20
25732;DHT22;13585;50.864;4.406;2023-01-28T08:51:03;15.30;57.20
25732;DHT22;13585;50.864;4.406;2023-01-28T08:53:29;15.30;57.20
25732;DHT22;13585;50.864;4.406;2023-01-28T08:55:54;15.30;57.20
25732;DHT22;13585;50.864;4.406;2023-01-28T08:58:20;15.30;57.20
25732;DHT22;13585;50.864;4.406;2023-01-28T09:00:46;15.30;57.20
25732;DHT22;13585;50.864;4.406;2023-01-28T09:03:12;15.30;57.20
25732;DHT22;13585;50.864;4.406;2023-01-28T09:05:38;15.30;57.20
25732;DHT22;13585;50.864;4.406;2023-01-28T09:08:09;15.30;57.20
25732;DHT22;13585;50.864;4.406;2023-01-28T09:10:35;15.30;57.20
25732;DHT22;13585;50.864;4.406;2023-01-28T09:13:15;15.30;57.10
25732;DHT22;13585;50.864;4.406;2023-01-28T09:15:41;15.30;57.10
25732;DHT22;13585;50.864;4.406;2023-01-28T09:18:07;15.30;57.10
25732;DHT22;13585;50.864;4.406;2023-01-28T09:20:33;15.30;57.10
25732;DHT22;13585;50.864;4.406;2023-01-28T09:23:00;15.30;57.10
25732;DHT22;13585;50.864;4.406;2023-01-28T09:25:25;15.20;57.10
25732;DHT22;13585;50.864;4.406;2023-01-28T09:27:51;15.20;57.00
25732;DHT22;13585;50.864;4.406;2023-01-28T09:30:17;15.30;57.10
25732;DHT22;13585;50.864;4.406;2023-01-28T09:32:43;15.20;57.00
25732;DHT22;13585;50.864;4.406;2023-01-28T09:35:08;15.30;57.00
25732;DHT22;13585;50.864;4.406;2023-01-28T09:37:36;15.30;57.00
25732;DHT22;13585;50.864;4.406;2023-01-28T09:40:02;15.20;57.00
25732;DHT22;13585;50.864;4.406;2023-01-28T09:47:52;15.20;57.00
25732;DHT22;13585;50.864;4.406;2023-01-28T09:50:34;15.20;56.90
25732;DHT22;13585;50.864;4.406;2023-01-28T09:53:10;15.20;56.90
25732;DHT22;13585;50.864;4.406;2023-01-28T09:55:40;15.30;56.90
25732;DHT22;13585;50.864;4.406;2023-01-28T09:58:13;15.20;56.80
25732;DHT22;13585;50.864;4.406;2023-01-28T10:00:58;15.20;56.80
25732;DHT22;13585;50.864;4.406;2023-01-28T10:03:35;15.20;56.90
25732;DHT22;13585;50.864;4.406;2023-01-28T10:15:28;15.20;56.90
25732;DHT22;13585;50.864;4.406;2023-01-28T10:18:03;15.10;56.80
25732;DHT22;13585;50.864;4.406;2023-01-28T10:20:35;15.20;56.80
25732;DHT22;13585;50.864;4.406;2023-01-28T10:25:49;15.10;56.80
25732;DHT22;13585;50.864;4.406;2023-01-28T10:28:26;15.20;56.80
25732;DHT22;13585;50.864;4.406;2023-01-28T10:30:53;15.20;56.80
25732;DHT22;13585;50.864;4.406;2023-01-28T10:33:27;15.20;56.70
25732;DHT22;13585;50.864;4.406;2023-01-28T10:35:55;15.20;56.70
25732;DHT22;13585;50.864;4.406;2023-01-28T10:38:23;15.20;56.70
25732;DHT22;13585;50.864;4.406;2023-01-28T10:40:50;15.20;56.80
25732;DHT22;13585;50.864;4.406;2023-01-28T10:43:19;15.10;56.60
25732;DHT22;13585;50.864;4.406;2023-01-28T10:46:05;15.10;56.60
25732;DHT22;13585;50.864;4.406;2023-01-28T10:48:57;15.10;56.60
25732;DHT22;13585;50.864;4.406;2023-01-28T10:51:29;15.10;56.60
25732;DHT22;13585;50.864;4.406;2023-01-28T10:53:56;15.10;56.60
25732;DHT22;13585;50.864;4.406;2023-01-28T10:56:26;15.10;56.50
25732;DHT22;13585;50.864;4.406;2023-01-28T10:59:01;15.10;56.50
25732;DHT22;13585;50.864;4.406;2023-01-28T11:01:46;15.10;56.50
25732;DHT22;13585;50.864;4.406;2023-01-28T11:04:31;15.10;56.60
25732;DHT22;13585;50.864;4.406;2023-01-28T11:09:47;15.10;56.50
25732;DHT22;13585;50.864;4.406;2023-01-28T11:12:20;15.10;56.50
25732;DHT22;13585;50.864;4.406;2023-01-28T11:15:02;15.10;56.40
25732;DHT22;13585;50.864;4.406;2023-01-28T11:17:30;15.10;56.40
25732;DHT22;13585;50.864;4.406;2023-01-28T11:19:59;15.10;56.40
25732;DHT22;13585;50.864;4.406;2023-01-28T11:22:40;15.10;56.40
25732;DHT22;13585;50.864;4.406;2023-01-28T11:27:50;15.10;56.40
25732;DHT22;13585;50.864;4.406;2023-01-28T11:30:33;15.10;56.40
25732;DHT22;13585;50.864;4.406;2023-01-28T11:33:16;15.10;56.40
25732;DHT22;13585;50.864;4.406;2023-01-28T11:35:55;15.10;56.40
25732;DHT22;13585;50.864;4.406;2023-01-28T11:38:24;15.10;56.30
25732;DHT22;13585;50.864;4.406;2023-01-28T11:40:54;15.10;56.30
25732;DHT22;13585;50.864;4.406;2023-01-28T11:43:22;15.00;56.30
25732;DHT22;13585;50.864;4.406;2023-01-28T11:54:45;15.10;56.30
25732;DHT22;13585;50.864;4.406;2023-01-28T12:07:45;15.00;56.20
25732;DHT22;13585;50.864;4.406;2023-01-28T12:10:15;15.00;56.20
25732;DHT22;13585;50.864;4.406;2023-01-28T12:24:43;15.00;56.50
25732;DHT22;13585;50.864;4.406;2023-01-28T12:38:06;15.00;57.00
25732;DHT22;13585;50.864;4.406;2023-01-28T12:40:58;15.00;57.20
25732;DHT22;13585;50.864;4.406;2023-01-28T12:46:46;15.00;57.50
25732;DHT22;13585;50.864;4.406;2023-01-28T12:49:24;15.10;57.70
25732;DHT22;13585;50.864;4.406;2023-01-28T12:51:58;15.10;57.90
25732;DHT22;13585;50.864;4.406;2023-01-28T12:54:55;15.00;57.90
25732;DHT22;13585;50.864;4.406;2023-01-28T12:57:27;15.10;58.10
25732;DHT22;13585;50.864;4.406;2023-01-28T13:02:44;15.10;58.20
25732;DHT22;13585;50.864;4.406;2023-01-28T13:05:21;15.10;58.30
25732;DHT22;13585;50.864;4.406;2023-01-28T13:07:54;15.10;58.30
25732;DHT22;13585;50.864;4.406;2023-01-28T13:10:39;15.10;58.40
25732;DHT22;13585;50.864;4.406;2023-01-28T13:13:06;15.10;58.40
25732;DHT22;13585;50.864;4.406;2023-01-28T13:15:39;15.10;58.40
25732;DHT22;13585;50.864;4.406;2023-01-28T13:18:06;15.20;58.60
25732;DHT22;13585;50.864;4.406;2023-01-28T13:20:58;15.20;58.60
25732;DHT22;13585;50.864;4.406;2023-01-28T13:28:35;15.20;59.10
25732;DHT22;13585;50.864;4.406;2023-01-28T13:31:09;15.20;59.10
25732;DHT22;13585;50.864;4.406;2023-01-28T13:33:40;15.20;59.30
25732;DHT22;13585;50.864;4.406;2023-01-28T13:41:50;15.30;59.30
25732;DHT22;13585;50.864;4.406;2023-01-28T13:46:57;15.20;59.30
25732;DHT22;13585;50.864;4.406;2023-01-28T13:49:31;15.20;59.30
25732;DHT22;13585;50.864;4.406;2023-01-28T13:54:34;15.30;59.50
25732;DHT22;13585;50.864;4.406;2023-01-28T14:06:06;15.30;59.60
25732;DHT22;13585;50.864;4.406;2023-01-28T14:14:35;15.30;59.70
25732;DHT22;13585;50.864;4.406;2023-01-28T14:19:52;15.30;59.70
25732;DHT22;13585;50.864;4.406;2023-01-28T14:22:20;15.30;59.70
25732;DHT22;13585;50.864;4.406;2023-01-28T14:24:46;15.30;59.80
25732;DHT22;13585;50.864;4.406;2023-01-28T14:27:25;15.20;59.70
25732;DHT22;13585;50.864;4.406;2023-01-28T14:33:11;15.20;59.80
25732;DHT22;13585;50.864;4.406;2023-01-28T14:35:37;15.20;59.70
25732;DHT22;13585;50.864;4.406;2023-01-28T14:38:08;15.20;59.80
25732;DHT22;13585;50.864;4.406;2023-01-28T14:40:38;15.20;59.90
25732;DHT22;13585;50.864;4.406;2023-01-28T14:43:07;15.20;59.90
25732;DHT22;13585;50.864;4.406;2023-01-28T14:51:21;15.20;59.90
25732;DHT22;13585;50.864;4.406;2023-01-28T14:56:48;15.20;59.90
25732;DHT22;13585;50.864;4.406;2023-01-28T14:59:18;15.20;60.00
25732;DHT22;13585;50.864;4.406;2023-01-28T15:01:46;15.20;60.70
25732;DHT22;13585;50.864;4.406;2023-01-28T15:06:54;15.20;60.00
25732;DHT22;13585;50.864;4.406;2023-01-28T15:09:20;15.20;59.90
25732;DHT22;13585;50.864;4.406;2023-01-28T15:11:50;15.20;59.90
25732;DHT22;13585;50.864;4.406;2023-01-28T15:14:28;15.20;59.90
25732;DHT22;13585;50.864;4.406;2023-01-28T15:16:55;15.20;59.90
25732;DHT22;13585;50.864;4.406;2023-01-28T15:19:31;15.20;59.80
25732;DHT22;13585;50.864;4.406;2023-01-28T15:22:00;15.20;59.90
25732;DHT22;13585;50.864;4.406;2023-01-28T15:24:27;15.20;59.80
25732;DHT22;13585;50.864;4.406;2023-01-28T15:26:53;15.20;59.80
25732;DHT22;13585;50.864;4.406;2023-01-28T15:29:31;15.20;59.80
25732;DHT22;13585;50.864;4.406;2023-01-28T15:31:58;15.20;59.80
25732;DHT22;13585;50.864;4.406;2023-01-28T15:34:24;15.20;59.70
25732;DHT22;13585;50.864;4.406;2023-01-28T15:36:55;15.20;59.70
25732;DHT22;13585;50.864;4.406;2023-01-28T15:39:23;15.20;59.60
25732;DHT22;13585;50.864;4.406;2023-01-28T15:41:58;15.20;59.60
25732;DHT22;13585;50.864;4.406;2023-01-28T15:44:42;15.20;59.60
25732;DHT22;13585;50.864;4.406;2023-01-28T15:47:21;15.20;59.60
25732;DHT22;13585;50.864;4.406;2023-01-28T15:49:52;15.20;59.50
25732;DHT22;13585;50.864;4.406;2023-01-28T15:52:18;15.20;59.50
25732;DHT22;13585;50.864;4.406;2023-01-28T15:54:48;15.20;59.50
25732;DHT22;13585;50.864;4.406;2023-01-28T15:57:24;15.20;59.40
25732;DHT22;13585;50.864;4.406;2023-01-28T16:02:30;15.10;59.30
25732;DHT22;13585;50.864;4.406;2023-01-28T16:05:01;15.10;59.20
25732;DHT22;13585;50.864;4.406;2023-01-28T16:07:29;15.20;59.30
25732;DHT22;13585;50.864;4.406;2023-01-28T16:09:57;15.10;59.20
25732;DHT22;13585;50.864;4.406;2023-01-28T16:12:23;15.10;59.20
25732;DHT22;13585;50.864;4.406;2023-01-28T16:14:53;15.10;59.10
25732;DHT22;13585;50.864;4.406;2023-01-28T16:17:29;15.10;59.10
25732;DHT22;13585;50.864;4.406;2023-01-28T16:20:04;15.10;59.10
25732;DHT22;13585;50.864;4.406;2023-01-28T16:22:34;15.10;59.10
25732;DHT22;13585;50.864;4.406;2023-01-28T16:25:01;15.10;59.00
25732;DHT22;13585;50.864;4.406;2023-01-28T16:27:29;15.10;59.00
25732;DHT22;13585;50.864;4.406;2023-01-28T16:29:56;15.10;59.00
25732;DHT22;13585;50.864;4.406;2023-01-28T16:34:55;15.10;59.00
25732;DHT22;13585;50.864;4.406;2023-01-28T16:37:21;15.10;58.90
25732;DHT22;13585;50.864;4.406;2023-01-28T16:39:47;15.10;58.90
25732;DHT22;13585;50.864;4.406;2023-01-28T16:42:13;15.10;58.80
25732;DHT22;13585;50.864;4.406;2023-01-28T16:44:39;15.10;58.80
25732;DHT22;13585;50.864;4.406;2023-01-28T16:47:05;15.10;58.80
25732;DHT22;13585;50.864;4.406;2023-01-28T16:49:30;15.00;58.70
25732;DHT22;13585;50.864;4.406;2023-01-28T16:51:57;15.10;58.70
25732;DHT22;13585;50.864;4.406;2023-01-28T16:54:22;15.10;58.70
25732;DHT22;13585;50.864;4.406;2023-01-28T16:56:48;15.10;58.50
25732;DHT22;13585;50.864;4.406;2023-01-28T16:59:15;15.10;58.40
25732;DHT22;13585;50.864;4.406;2023-01-28T17:01:41;15.10;58.30
25732;DHT22;13585;50.864;4.406;2023-01-28T17:04:08;15.10;58.20
25732;DHT22;13585;50.864;4.406;2023-01-28T17:06:35;15.10;58.10
25732;DHT22;13585;50.864;4.406;2023-01-28T17:09:05;15.10;58.00
25732;DHT22;13585;50.864;4.406;2023-01-28T17:11:32;15.10;57.90
25732;DHT22;13585;50.864;4.406;2023-01-28T17:13:57;15.10;57.90
25732;DHT22;13585;50.864;4.406;2023-01-28T17:16:23;15.10;57.70
25732;DHT22;13585;50.864;4.406;2023-01-28T17:18:53;15.10;57.70
25732;DHT22;13585;50.864;4.406;2023-01-28T17:21:19;15.10;57.60
25732;DHT22;13585;50.864;4.406;2023-01-28T17:23:45;15.10;57.50
25732;DHT22;13585;50.864;4.406;2023-01-28T17:26:13;15.10;57.40
25732;DHT22;13585;50.864;4.406;2023-01-28T17:28:39;15.10;57.40
25732;DHT22;13585;50.864;4.406;2023-01-28T17:31:12;15.10;57.30
25732;DHT22;13585;50.864;4.406;2023-01-28T17:33:41;15.10;57.30
25732;DHT22;13585;50.864;4.406;2023-01-28T17:36:07;15.20;57.30
25732;DHT22;13585;50.864;4.406;2023-01-28T17:38:33;15.20;57.20
25732;DHT22;13585;50.864;4.406;2023-01-28T17:41:07;15.10;57.10
25732;DHT22;13585;50.864;4.406;2023-01-28T17:43:33;15.20;57.20
25732;DHT22;13585;50.864;4.406;2023-01-28T17:45:59;15.20;57.10
25732;DHT22;13585;50.864;4.406;2023-01-28T17:48:25;15.20;57.10
25732;DHT22;13585;50.864;4.406;2023-01-28T17:50:55;15.20;57.10
25732;DHT22;13585;50.864;4.406;2023-01-28T17:53:21;15.20;57.10
25732;DHT22;13585;50.864;4.406;2023-01-28T17:55:47;15.20;57.10
25732;DHT22;13585;50.864;4.406;2023-01-28T17:58:12;15.20;57.10
25732;DHT22;13585;50.864;4.406;2023-01-28T18:00:38;15.20;57.10
25732;DHT22;13585;50.864;4.406;2023-01-28T18:03:03;15.20;57.10
25732;DHT22;13585;50.864;4.406;2023-01-28T18:05:29;15.20;57.10
25732;DHT22;13585;50.864;4.406;2023-01-28T18:07:55;15.20;57.20
25732;DHT22;13585;50.864;4.406;2023-01-28T18:10:20;15.20;57.30